Time;durP1;ratioP1;P1;durP2;ratioP2;P2;SDS_P1;SDS_P2;PMS_P1;PMS_P2;Temp;Humidity;BMP_temperature;BMP_pressure;BME280_temperature;BME280_humidity;BME280_pressure;Samples;Min_cycle;Max_cycle;Signal;HPM_P1;HPM_P2
2022/03/10 00:02:07;;;;;;;46.92;21.05;;;0.90;56.50;;;;;;4936629;28;20130;-65
2022/03/10 00:04:34;;;;;;;43.65;21.05;;;0.80;56.50;;;;;;4936725;28;20054;-67
2022/03/10 00:07:02;;;;;;;45.33;21.73;;;0.80;56.50;;;;;;4939821;28;20636;-67
2022/03/10 00:09:27;;;;;;;46.95;21.95;;;0.80;56.60;;;;;;4938071;28;20040;-66
2022/03/10 00:11:53;;;;;;;47.15;21.20;;;0.80;56.60;;;;;;4936334;28;20035;-66
2022/03/10 00:14:18;;;;;;;42.38;20.17;;;0.70;56.50;;;;;;4936170;28;20039;-66
2022/03/10 00:16:44;;;;;;;40.60;19.83;;;0.70;56.50;;;;;;4941794;28;20027;-66
2022/03/10 00:19:12;;;;;;;46.08;21.77;;;0.70;56.50;;;;;;4935923;28;20035;-66
2022/03/10 00:21:38;;;;;;;40.90;20.33;;;0.60;56.50;;;;;;4935894;28;20267;-66
2022/03/10 00:24:05;;;;;;;43.85;20.90;;;0.60;56.60;;;;;;4940153;28;20031;-66
2022/03/10 00:26:30;;;;;;;44.72;21.15;;;0.60;56.70;;;;;;4933918;28;20036;-66
2022/03/10 00:28:56;;;;;;;48.25;22.35;;;0.60;56.60;;;;;;4943195;28;20028;-66
2022/03/10 00:31:22;;;;;;;43.58;20.95;;;0.50;56.70;;;;;;4935591;28;20168;-66
2022/03/10 00:33:48;;;;;;;46.97;20.58;;;0.50;56.80;;;;;;4935614;28;20039;-65
2022/03/10 00:36:14;;;;;;;49.10;22.23;;;0.50;56.80;;;;;;4937388;28;20527;-66
2022/03/10 00:38:40;;;;;;;48.70;21.48;;;0.50;56.90;;;;;;4933848;28;20047;-66
2022/03/10 00:41:05;;;;;;;46.10;22.33;;;0.40;56.90;;;;;;4938838;28;20031;-66
2022/03/10 00:43:31;;;;;;;48.10;21.85;;;0.40;57.00;;;;;;4937567;28;20363;-67
2022/03/10 00:45:56;;;;;;;45.28;21.95;;;0.30;57.10;;;;;;4936365;28;20035;-66
2022/03/10 00:48:22;;;;;;;48.53;22.25;;;0.30;57.30;;;;;;4934571;28;20063;-66
2022/03/10 00:50:48;;;;;;;43.03;20.52;;;0.20;57.40;;;;;;4934873;28;20067;-66
2022/03/10 00:53:13;;;;;;;47.03;19.98;;;0.20;57.50;;;;;;4935509;28;20047;-65
2022/03/10 00:55:39;;;;;;;46.25;21.25;;;0.10;57.60;;;;;;4935419;28;20126;-66
2022/03/10 00:58:05;;;;;;;49.38;22.00;;;0.10;57.80;;;;;;4934737;28;20044;-66
2022/03/10 01:00:30;;;;;;;44.20;20.60;;;0.00;57.90;;;;;;4936938;28;20786;-66
2022/03/10 01:02:56;;;;;;;48.40;21.58;;;0.00;58.10;;;;;;4935921;28;20035;-66
2022/03/10 01:05:22;;;;;;;46.13;20.88;;;-0.10;58.20;;;;;;4941072;28;20039;-65
2022/03/10 01:07:48;;;;;;;44.97;20.85;;;-0.10;58.30;;;;;;4936690;28;20050;-66
2022/03/10 01:10:16;;;;;;;48.30;22.00;;;-0.10;58.50;;;;;;4933906;28;20039;-66
2022/03/10 01:12:44;;;;;;;45.05;20.65;;;-0.10;58.50;;;;;;4932928;28;20054;-66
2022/03/10 01:15:20;;;;;;;48.70;21.25;;;-0.20;58.50;;;;;;4939354;28;20032;-65
2022/03/10 01:17:46;;;;;;;45.33;21.23;;;-0.20;58.60;;;;;;4936491;28;20035;-66
2022/03/10 01:20:12;;;;;;;55.22;24.50;;;-0.20;58.60;;;;;;4935202;28;20035;-66
2022/03/10 01:22:38;;;;;;;65.45;26.38;;;-0.30;58.70;;;;;;4935447;28;20105;-66
2022/03/10 01:25:06;;;;;;;71.70;29.27;;;-0.30;58.80;;;;;;4933483;28;20038;-66
2022/03/10 01:27:33;;;;;;;74.57;29.63;;;-0.30;58.90;;;;;;4934471;28;20039;-66
2022/03/10 01:29:58;;;;;;;79.63;30.58;;;-0.30;58.90;;;;;;4934985;28;20062;-66
2022/03/10 01:32:25;;;;;;;65.40;28.55;;;-0.30;59.10;;;;;;4933214;28;20496;-66
2022/03/10 01:34:51;;;;;;;67.38;27.20;;;-0.40;59.20;;;;;;4936933;28;20114;-66
2022/03/10 01:37:17;;;;;;;54.67;24.20;;;-0.40;59.30;;;;;;4936600;28;20028;-65
2022/03/10 01:39:42;;;;;;;51.45;23.10;;;-0.50;59.30;;;;;;4934275;28;20042;-65
2022/03/10 01:42:08;;;;;;;49.13;23.35;;;-0.50;59.40;;;;;;4942445;28;20520;-66
2022/03/10 01:44:34;;;;;;;47.30;21.73;;;-0.50;59.60;;;;;;4935208;28;20035;-65
2022/03/10 01:47:01;;;;;;;45.33;21.05;;;-0.50;59.60;;;;;;4936033;28;20094;-66
2022/03/10 01:49:27;;;;;;;44.50;21.88;;;-0.50;59.80;;;;;;4936469;28;20035;-66
2022/03/10 01:51:53;;;;;;;51.03;22.65;;;-0.60;59.90;;;;;;4934544;28;20038;-66
2022/03/10 01:54:20;;;;;;;48.05;21.20;;;-0.60;60.00;;;;;;4935155;28;20035;-66
2022/03/10 01:56:47;;;;;;;42.50;21.08;;;-0.60;60.00;;;;;;4936578;28;20036;-66
2022/03/10 01:59:14;;;;;;;42.50;21.08;;;-0.60;60.10;;;;;;4935197;28;20495;-66
2022/03/10 02:01:40;;;;;;;43.80;20.73;;;-0.60;60.10;;;;;;4941147;28;20407;-66
2022/03/10 02:04:05;;;;;;;43.35;20.75;;;-0.60;60.40;;;;;;4937785;28;20035;-66
2022/03/10 02:06:32;;;;;;;49.50;21.40;;;-0.70;60.20;;;;;;4937351;28;20046;-66
2022/03/10 02:11:42;;;;;;;42.25;20.88;;;-0.70;60.40;;;;;;4935494;28;20062;-66
2022/03/10 02:19:37;;;;;;;46.33;20.10;;;-0.80;60.50;;;;;;4933346;28;20057;-65
2022/03/10 02:22:11;;;;;;;47.28;21.05;;;-0.80;60.40;;;;;;4937123;28;20044;-66
2022/03/10 02:24:38;;;;;;;44.88;21.15;;;-0.80;60.90;;;;;;4936016;28;20131;-65
2022/03/10 02:27:27;;;;;;;43.42;20.48;;;-0.80;60.60;;;;;;4934454;28;20043;-66
2022/03/10 02:29:59;;;;;;;45.28;20.30;;;-0.80;61.60;;;;;;4936489;28;20407;-66
2022/03/10 02:32:24;;;;;;;46.53;20.17;;;-0.90;60.80;;;;;;4934543;28;20078;-65
2022/03/10 02:34:50;;;;;;;44.17;20.33;;;-0.90;60.70;;;;;;4936615;28;20043;-66
2022/03/10 02:37:17;;;;;;;44.47;19.77;;;-0.90;60.80;;;;;;4939075;28;20066;-66
2022/03/10 02:39:44;;;;;;;39.72;19.00;;;-0.90;60.70;;;;;;4938316;28;20039;-65
2022/03/10 02:42:10;;;;;;;44.50;18.63;;;-0.90;60.60;;;;;;4939386;28;20036;-66
2022/03/10 02:44:41;;;;;;;35.25;17.83;;;-0.90;60.40;;;;;;4939390;28;20091;-66
2022/03/10 02:47:06;;;;;;;42.33;19.80;;;-0.90;60.60;;;;;;4939375;28;20035;-66
2022/03/10 02:49:32;;;;;;;40.08;18.58;;;-0.90;60.50;;;;;;4939417;28;20042;-66
2022/03/10 02:51:58;;;;;;;43.55;19.67;;;-0.80;60.50;;;;;;4937759;28;20522;-66
2022/03/10 02:54:23;;;;;;;40.17;20.55;;;-0.80;60.30;;;;;;4939212;28;20050;-67
2022/03/10 02:56:49;;;;;;;40.40;19.23;;;-0.80;60.30;;;;;;4936459;28;20521;-66
2022/03/10 02:59:14;;;;;;;42.53;19.80;;;-0.70;60.30;;;;;;4940049;28;20081;-66
2022/03/10 03:01:40;;;;;;;42.08;19.60;;;-0.70;60.20;;;;;;4939656;28;20070;-66
2022/03/10 03:04:06;;;;;;;41.83;20.73;;;-0.70;60.80;;;;;;4939693;28;20039;-66
2022/03/10 03:06:32;;;;;;;44.10;21.05;;;-0.70;59.90;;;;;;4938835;28;20036;-66
2022/03/10 03:08:58;;;;;;;41.38;19.75;;;-0.70;59.70;;;;;;4936378;28;20526;-66
2022/03/10 03:11:24;;;;;;;43.55;20.33;;;-0.70;59.70;;;;;;4940190;28;20212;-67
2022/03/10 03:13:49;;;;;;;47.42;20.02;;;-0.70;59.60;;;;;;4939432;28;20135;-66
2022/03/10 03:16:15;;;;;;;43.05;20.80;;;-0.70;59.70;;;;;;4941355;28;20032;-66
2022/03/10 03:18:40;;;;;;;43.17;20.27;;;-0.70;59.60;;;;;;4940443;28;20396;-65
2022/03/10 03:21:06;;;;;;;41.95;20.10;;;-0.80;59.60;;;;;;4939346;28;20052;-66
2022/03/10 03:23:31;;;;;;;44.30;21.30;;;-0.80;59.60;;;;;;4938552;28;20095;-66
2022/03/10 03:25:57;;;;;;;41.55;19.88;;;-0.80;59.60;;;;;;4939140;28;20597;-66
2022/03/10 03:28:23;;;;;;;46.55;20.58;;;-0.90;59.60;;;;;;4937228;28;20047;-66
2022/03/10 03:30:49;;;;;;;43.63;20.60;;;-1.00;59.70;;;;;;4938122;28;20607;-66
2022/03/10 03:33:15;;;;;;;46.45;20.45;;;-1.00;59.80;;;;;;4937026;28;20043;-66
2022/03/10 03:35:43;;;;;;;42.30;19.92;;;-1.10;59.80;;;;;;4942740;28;20513;-66
2022/03/10 03:38:09;;;;;;;45.08;19.98;;;-1.10;60.00;;;;;;4937220;28;20040;-64
2022/03/10 03:40:35;;;;;;;41.10;20.20;;;-1.20;60.00;;;;;;4934855;28;20039;-66
2022/03/10 03:43:01;;;;;;;46.28;21.50;;;-1.20;60.10;;;;;;4938897;28;20041;-67
2022/03/10 03:45:27;;;;;;;46.00;21.15;;;-1.20;60.20;;;;;;4940734;28;20040;-66
2022/03/10 03:47:53;;;;;;;47.25;21.80;;;-1.30;60.20;;;;;;4939178;28;20046;-65
2022/03/10 03:50:19;;;;;;;45.00;22.35;;;-1.30;60.10;;;;;;4937567;28;20046;-66
2022/03/10 03:52:45;;;;;;;50.72;24.63;;;-1.30;60.10;;;;;;4939024;28;20039;-66
2022/03/10 03:55:12;;;;;;;50.17;23.80;;;-1.30;60.10;;;;;;4936909;28;20338;-66
2022/03/10 03:57:37;;;;;;;54.15;24.95;;;-1.40;60.10;;;;;;4939747;28;20074;-65
2022/03/10 04:00:05;;;;;;;47.53;23.98;;;-1.40;60.20;;;;;;4937885;28;20110;-66
2022/03/10 04:02:31;;;;;;;48.75;23.50;;;-1.50;60.20;;;;;;4938445;28;20538;-66
2022/03/10 04:04:57;;;;;;;48.53;22.52;;;-1.50;60.20;;;;;;4945810;28;20130;-66
2022/03/10 04:07:22;;;;;;;46.38;22.00;;;-1.50;60.20;;;;;;4939882;28;20110;-66
2022/03/10 04:09:48;;;;;;;48.97;22.75;;;-1.50;60.20;;;;;;4939921;28;20070;-66
2022/03/10 04:12:14;;;;;;;49.47;22.30;;;-1.50;60.20;;;;;;4941282;28;20550;-66
2022/03/10 04:14:40;;;;;;;46.00;21.92;;;-1.50;60.30;;;;;;4939868;28;20388;-66
2022/03/10 04:17:05;;;;;;;44.40;21.42;;;-1.60;60.10;;;;;;4939338;28;20400;-66
2022/03/10 04:19:31;;;;;;;42.78;20.08;;;-1.50;60.30;;;;;;4937783;28;20098;-67
2022/03/10 04:21:57;;;;;;;43.58;20.42;;;-1.50;60.20;;;;;;4936615;28;20058;-66
2022/03/10 04:24:23;;;;;;;45.33;20.98;;;-1.60;60.10;;;;;;4937469;28;20036;-68
2022/03/10 04:26:48;;;;;;;43.58;19.85;;;-1.60;60.20;;;;;;4936930;28;20515;-65
2022/03/10 04:29:14;;;;;;;46.30;20.13;;;-1.60;60.30;;;;;;4937368;28;20080;-66
2022/03/10 04:31:41;;;;;;;42.42;20.52;;;-1.60;60.20;;;;;;4934896;28;20031;-66
2022/03/10 04:34:07;;;;;;;42.58;20.23;;;-1.60;60.20;;;;;;4939792;28;20669;-66
2022/03/10 04:36:33;;;;;;;42.78;20.42;;;-1.60;60.30;;;;;;4934436;28;20039;-66
2022/03/10 04:38:59;;;;;;;49.55;21.63;;;-1.60;60.30;;;;;;4936208;28;20067;-66
2022/03/10 04:41:24;;;;;;;48.08;19.40;;;-1.60;60.40;;;;;;4934773;28;20050;-66
2022/03/10 04:43:50;;;;;;;43.80;20.02;;;-1.60;61.40;;;;;;4936293;28;20035;-66
2022/03/10 04:46:15;;;;;;;44.88;21.83;;;-1.60;60.60;;;;;;4936442;28;20043;-66
2022/03/10 04:48:42;;;;;;;57.63;24.73;;;-1.60;60.70;;;;;;4937770;28;20043;-65
2022/03/10 04:51:08;;;;;;;56.30;24.65;;;-1.50;60.70;;;;;;4936774;28;20050;-66
2022/03/10 04:53:34;;;;;;;63.25;26.90;;;-1.60;60.60;;;;;;4931816;28;20039;-64
2022/03/10 04:55:59;;;;;;;64.90;26.85;;;-1.60;60.40;;;;;;4935536;29;20047;-66
2022/03/10 04:58:25;;;;;;;63.72;26.58;;;-1.60;60.50;;;;;;4935345;28;20035;-66
2022/03/10 05:00:51;;;;;;;51.63;24.83;;;-1.60;60.30;;;;;;4934626;28;20135;-66
2022/03/10 05:03:16;;;;;;;54.97;23.33;;;-1.60;60.30;;;;;;4937311;28;20042;-66
2022/03/10 05:05:42;;;;;;;53.53;23.50;;;-1.60;60.20;;;;;;4937905;28;20039;-66
2022/03/10 05:08:08;;;;;;;49.58;23.25;;;-1.60;60.10;;;;;;4937038;28;20587;-66
2022/03/10 05:10:33;;;;;;;56.72;24.08;;;-1.60;60.20;;;;;;4935325;28;20031;-66
2022/03/10 05:13:02;;;;;;;48.28;23.50;;;-1.60;60.40;;;;;;4935040;28;20040;-66
2022/03/10 05:15:31;;;;;;;53.30;23.60;;;-1.60;60.40;;;;;;4937143;29;20043;-66
2022/03/10 05:18:01;;;;;;;50.40;23.35;;;-1.60;60.50;;;;;;4932981;28;20038;-65
2022/03/10 05:20:27;;;;;;;50.63;22.30;;;-1.70;60.60;;;;;;4936399;28;20078;-66
2022/03/10 05:22:55;;;;;;;45.00;21.42;;;-1.80;60.60;;;;;;4934326;28;20644;-66
2022/03/10 05:25:22;;;;;;;48.85;22.20;;;-1.80;60.70;;;;;;4935179;28;20055;-66
2022/03/10 05:27:49;;;;;;;46.75;21.65;;;-1.80;60.70;;;;;;4936253;28;20090;-65
2022/03/10 05:30:16;;;;;;;55.53;23.30;;;-1.90;60.80;;;;;;4937891;28;20032;-66
2022/03/10 05:32:42;;;;;;;47.53;21.92;;;-2.00;60.90;;;;;;4935730;28;20043;-66
2022/03/10 05:35:09;;;;;;;48.28;22.20;;;-2.00;60.90;;;;;;4937503;28;20107;-66
2022/03/10 05:37:37;;;;;;;46.50;21.45;;;-2.00;61.10;;;;;;4938498;28;20023;-65
2022/03/10 05:40:11;;;;;;;45.90;21.40;;;-2.10;61.00;;;;;;4935712;28;20562;-66
2022/03/10 05:42:40;;;;;;;45.65;21.00;;;-2.10;61.30;;;;;;4936043;28;20130;-66
2022/03/10 05:45:07;;;;;;;52.72;21.20;;;-2.10;61.30;;;;;;4937819;28;20099;-66
2022/03/10 05:47:34;;;;;;;48.83;20.73;;;-2.20;61.10;;;;;;4936143;28;20043;-66
2022/03/10 05:50:00;;;;;;;49.08;21.30;;;-2.20;61.20;;;;;;4936092;28;20031;-67
2022/03/10 05:52:25;;;;;;;43.42;20.33;;;-2.20;61.30;;;;;;4935829;28;20049;-65
2022/03/10 05:54:51;;;;;;;46.75;22.20;;;-2.20;61.40;;;;;;4936603;28;20036;-66
2022/03/10 05:57:16;;;;;;;47.03;21.00;;;-2.20;61.50;;;;;;4936302;28;20050;-66
2022/03/10 05:59:42;;;;;;;45.00;20.83;;;-2.30;61.50;;;;;;4936657;28;20086;-66
2022/03/10 06:02:07;;;;;;;52.33;20.88;;;-2.30;61.60;;;;;;4935776;28;20032;-67
2022/03/10 06:04:33;;;;;;;42.88;19.40;;;-2.30;61.70;;;;;;4937060;28;20630;-65
2022/03/10 06:07:00;;;;;;;49.15;21.08;;;-2.30;61.80;;;;;;4935481;28;20031;-65
2022/03/10 06:09:25;;;;;;;47.55;20.92;;;-2.30;61.90;;;;;;4937310;28;20054;-66
2022/03/10 06:11:51;;;;;;;50.55;20.85;;;-2.30;62.00;;;;;;4935724;28;20039;-66
2022/03/10 06:14:18;;;;;;;55.08;21.77;;;-2.40;61.90;;;;;;4940888;28;20039;-65
2022/03/10 06:16:44;;;;;;;42.80;19.90;;;-2.40;62.10;;;;;;4939784;28;21226;-65
2022/03/10 06:19:09;;;;;;;50.00;20.90;;;-2.40;62.10;;;;;;4940072;28;20118;-64
2022/03/10 06:21:35;;;;;;;48.67;20.42;;;-2.40;62.20;;;;;;4939770;28;20126;-66
2022/03/10 06:24:01;;;;;;;50.30;20.85;;;-2.40;62.30;;;;;;4939577;28;20031;-66
2022/03/10 06:26:27;;;;;;;40.95;21.05;;;-2.40;62.40;;;;;;4940170;28;20103;-65
2022/03/10 06:28:53;;;;;;;48.13;21.67;;;-2.30;62.40;;;;;;4941234;28;20039;-65
2022/03/10 06:31:19;;;;;;;49.08;21.27;;;-2.30;62.60;;;;;;4940102;28;20039;-66
2022/03/10 06:33:45;;;;;;;49.00;21.88;;;-2.30;62.70;;;;;;4940351;28;20358;-66
2022/03/10 06:36:11;;;;;;;47.20;21.20;;;-2.30;62.90;;;;;;4940196;28;20468;-66
2022/03/10 06:38:37;;;;;;;52.10;22.83;;;-2.30;63.20;;;;;;4940719;28;20539;-66
2022/03/10 06:41:03;;;;;;;54.53;22.15;;;-2.30;63.30;;;;;;4940875;28;20130;-66
2022/03/10 06:43:29;;;;;;;73.18;22.10;;;-2.20;63.70;;;;;;4940416;28;20039;-65
2022/03/10 06:45:54;;;;;;;45.80;21.45;;;-2.20;63.90;;;;;;4942684;28;20114;-66
2022/03/10 06:48:20;;;;;;;52.60;21.25;;;-2.10;64.10;;;;;;4939586;28;20066;-66
2022/03/10 06:50:46;;;;;;;48.67;21.52;;;-2.10;64.20;;;;;;4940005;28;20035;-66
2022/03/10 06:53:13;;;;;;;50.88;21.30;;;-2.00;64.40;;;;;;4944212;28;20043;-67
2022/03/10 06:55:38;;;;;;;44.15;20.60;;;-1.90;64.60;;;;;;4940408;28;20118;-66
2022/03/10 06:58:04;;;;;;;45.60;20.25;;;-1.80;65.00;;;;;;4939413;28;20519;-67
2022/03/10 07:00:30;;;;;;;44.70;20.20;;;-1.70;65.10;;;;;;4940440;28;20073;-66
2022/03/10 07:02:56;;;;;;;49.63;21.08;;;-1.60;64.90;;;;;;4941318;28;20051;-65
2022/03/10 07:05:22;;;;;;;46.80;21.17;;;-1.60;65.10;;;;;;4937480;28;20407;-66
2022/03/10 07:07:48;;;;;;;48.22;21.25;;;-1.50;65.10;;;;;;4941132;28;20047;-66
2022/03/10 07:10:13;;;;;;;46.58;20.70;;;-1.40;66.00;;;;;;4940526;28;20447;-66
2022/03/10 07:12:41;;;;;;;46.40;21.13;;;-1.30;65.10;;;;;;4944258;28;20043;-67
2022/03/10 07:15:08;;;;;;;46.85;21.42;;;-1.20;64.90;;;;;;4938910;28;20184;-66
2022/03/10 07:17:33;;;;;;;53.85;23.13;;;-1.10;64.90;;;;;;4941642;28;20035;-66
2022/03/10 07:19:59;;;;;;;53.60;23.25;;;-1.00;64.80;;;;;;4939100;28;20028;-67
2022/03/10 07:22:25;;;;;;;45.70;21.13;;;-1.00;64.60;;;;;;4939621;28;20555;-66
2022/03/10 07:24:51;;;;;;;48.00;21.70;;;-0.90;64.60;;;;;;4935407;28;20527;-67
2022/03/10 07:27:17;;;;;;;42.78;20.67;;;-0.80;64.70;;;;;;4939735;28;20124;-66
2022/03/10 07:29:43;;;;;;;43.90;19.65;;;-0.70;65.00;;;;;;4940214;28;20062;-66
2022/03/10 07:32:08;;;;;;;38.38;17.20;;;-0.60;64.80;;;;;;4939795;28;20359;-67
2022/03/10 07:34:34;;;;;;;35.65;17.13;;;-0.50;64.60;;;;;;4938611;28;20838;-66
2022/03/10 07:37:00;;;;;;;32.70;16.63;;;-0.40;64.30;;;;;;4938036;28;20082;-66
2022/03/10 07:39:26;;;;;;;39.78;19.10;;;-0.30;64.30;;;;;;4938834;28;20151;-66
2022/03/10 07:41:51;;;;;;;39.08;18.15;;;-0.20;64.90;;;;;;4939975;28;20415;-66
2022/03/10 07:44:17;;;;;;;38.83;19.50;;;-0.10;64.50;;;;;;4941647;28;20657;-66
2022/03/10 07:46:43;;;;;;;37.75;19.15;;;0.00;65.20;;;;;;4940427;28;20054;-66
2022/03/10 07:49:11;;;;;;;39.63;19.77;;;0.10;64.70;;;;;;4939678;28;20039;-67
2022/03/10 07:51:40;;;;;;;39.60;19.27;;;0.20;64.70;;;;;;4939145;28;20178;-67
2022/03/10 07:54:06;;;;;;;35.78;18.45;;;0.40;64.60;;;;;;4938891;28;20424;-67
2022/03/10 07:56:31;;;;;;;37.75;19.48;;;0.40;64.20;;;;;;4939916;28;20048;-68
2022/03/10 07:58:57;;;;;;;33.90;17.25;;;0.50;64.10;;;;;;4938748;28;20032;-68
2022/03/10 08:01:22;;;;;;;35.72;17.80;;;0.60;63.70;;;;;;4937639;28;20040;-68
2022/03/10 08:03:48;;;;;;;38.55;17.77;;;0.70;64.20;;;;;;4938771;28;20040;-67
2022/03/10 08:06:14;;;;;;;35.45;18.25;;;0.80;63.80;;;;;;4938554;28;20050;-68
2022/03/10 08:08:40;;;;;;;38.38;17.95;;;0.90;63.60;;;;;;4938341;28;20451;-67
2022/03/10 08:11:06;;;;;;;37.00;17.35;;;1.00;63.70;;;;;;4937660;28;20039;-67
2022/03/10 08:13:32;;;;;;;35.90;17.65;;;1.10;63.40;;;;;;4939519;28;20043;-67
2022/03/10 08:15:59;;;;;;;35.35;17.52;;;1.20;63.20;;;;;;4937845;28;20031;-67
2022/03/10 08:18:25;;;;;;;39.22;18.33;;;1.30;63.30;;;;;;4939146;28;20063;-67
2022/03/10 08:20:50;;;;;;;33.97;18.13;;;1.40;64.00;;;;;;4938852;28;20573;-67
2022/03/10 08:23:18;;;;;;;40.25;19.50;;;1.50;63.50;;;;;;4934727;28;20372;-67
2022/03/10 08:25:44;;;;;;;41.42;19.77;;;1.60;63.70;;;;;;4938437;28;20410;-67
2022/03/10 08:28:11;;;;;;;36.92;18.05;;;1.60;63.70;;;;;;4937895;28;20111;-67
2022/03/10 08:30:37;;;;;;;33.78;17.65;;;1.70;63.40;;;;;;4938459;28;20045;-67
2022/03/10 08:33:03;;;;;;;30.73;16.92;;;1.80;63.10;;;;;;4937608;28;20039;-67
2022/03/10 08:35:29;;;;;;;29.50;16.10;;;2.00;63.20;;;;;;4937662;28;20045;-66
2022/03/10 08:37:55;;;;;;;33.80;17.17;;;2.10;62.80;;;;;;4937765;28;20035;-67
2022/03/10 08:40:21;;;;;;;30.85;16.92;;;2.20;62.60;;;;;;4936964;28;20044;-67
2022/03/10 08:42:48;;;;;;;31.08;16.05;;;2.30;62.60;;;;;;4938658;28;20063;-67
2022/03/10 08:45:14;;;;;;;30.02;16.55;;;2.40;62.40;;;;;;4937495;28;20054;-67
2022/03/10 08:47:39;;;;;;;33.35;16.70;;;2.50;62.40;;;;;;4938724;28;20032;-67
2022/03/10 08:50:06;;;;;;;30.05;15.73;;;2.60;62.30;;;;;;4936576;28;20067;-67
2022/03/10 08:52:32;;;;;;;35.67;15.85;;;2.70;62.10;;;;;;4937887;28;20035;-67
2022/03/10 08:54:57;;;;;;;30.75;16.13;;;2.90;62.00;;;;;;4937260;28;20103;-67
2022/03/10 08:57:23;;;;;;;37.70;16.90;;;3.00;61.80;;;;;;4936892;28;20119;-67
2022/03/10 08:59:49;;;;;;;35.63;16.45;;;3.10;61.40;;;;;;4937986;28;20024;-67
2022/03/10 09:02:14;;;;;;;32.60;16.30;;;3.20;61.30;;;;;;4934827;28;20517;-66
2022/03/10 09:04:40;;;;;;;32.83;15.88;;;3.30;61.20;;;;;;4938829;28;20031;-67
2022/03/10 09:07:06;;;;;;;36.90;16.98;;;3.40;60.90;;;;;;4938482;28;20059;-66
2022/03/10 09:09:31;;;;;;;28.25;14.70;;;3.50;60.80;;;;;;4936510;28;20042;-67
2022/03/10 09:11:57;;;;;;;34.20;16.45;;;3.60;60.70;;;;;;4937803;28;20039;-67
2022/03/10 09:14:23;;;;;;;29.40;15.60;;;3.70;60.60;;;;;;4938475;28;20056;-67
2022/03/10 09:16:52;;;;;;;28.13;14.90;;;3.80;60.60;;;;;;4940321;28;20427;-68
2022/03/10 09:19:18;;;;;;;30.90;15.60;;;3.90;60.60;;;;;;4937211;28;20516;-67
2022/03/10 09:21:44;;;;;;;26.00;14.55;;;4.00;60.40;;;;;;4939816;28;20047;-67
2022/03/10 09:24:10;;;;;;;27.20;14.98;;;4.10;60.20;;;;;;4936394;28;20039;-67
2022/03/10 09:26:38;;;;;;;28.55;15.90;;;4.20;60.10;;;;;;4937678;28;20324;-68
2022/03/10 09:29:04;;;;;;;28.42;15.70;;;4.30;60.00;;;;;;4936560;28;20039;-65
2022/03/10 09:31:29;;;;;;;26.13;14.52;;;4.50;60.00;;;;;;4938673;28;20031;-68
2022/03/10 09:33:55;;;;;;;25.70;14.02;;;4.60;59.90;;;;;;4939664;28;20045;-68
2022/03/10 09:36:21;;;;;;;27.23;15.60;;;4.70;59.70;;;;;;4937548;28;20062;-68
2022/03/10 09:38:46;;;;;;;27.40;13.65;;;4.80;59.50;;;;;;4937543;28;20881;-67
2022/03/10 09:41:12;;;;;;;27.08;14.45;;;5.00;59.30;;;;;;4941956;28;20118;-68
2022/03/10 09:43:39;;;;;;;23.65;13.63;;;5.10;59.10;;;;;;4938055;28;20039;-67
2022/03/10 09:46:08;;;;;;;24.80;13.05;;;5.20;58.90;;;;;;4938078;28;20042;-66
2022/03/10 09:48:35;;;;;;;21.05;12.70;;;5.40;59.10;;;;;;4935883;28;20474;-65
2022/03/10 09:51:01;;;;;;;24.88;12.57;;;5.50;58.60;;;;;;4938257;28;20063;-65
2022/03/10 09:53:30;;;;;;;19.48;10.98;;;5.70;59.20;;;;;;4937007;28;22222;-65
2022/03/10 09:55:56;;;;;;;19.40;11.85;;;5.80;59.00;;;;;;4935441;28;20091;-65
2022/03/10 09:58:22;;;;;;;21.63;11.63;;;6.00;58.20;;;;;;4937101;28;20605;-65
2022/03/10 10:00:48;;;;;;;18.90;11.38;;;6.10;57.90;;;;;;4937723;28;20043;-65
2022/03/10 10:03:13;;;;;;;22.02;11.48;;;6.30;57.70;;;;;;4936637;28;20028;-65
2022/03/10 10:05:40;;;;;;;18.33;11.23;;;6.40;57.50;;;;;;4938659;28;20584;-65
2022/03/10 10:08:15;;;;;;;19.35;10.63;;;6.60;57.30;;;;;;4936059;28;20040;-65
2022/03/10 10:10:47;;;;;;;18.92;9.65;;;6.80;57.00;;;;;;4950023;28;20027;-65
2022/03/10 10:13:31;;;;;;;21.33;9.57;;;6.90;56.50;;;;;;4935922;28;20031;-65
2022/03/10 10:16:05;;;;;;;14.70;9.05;;;7.10;56.00;;;;;;4936722;28;20053;-63
2022/03/10 10:18:33;;;;;;;16.50;9.30;;;7.30;56.00;;;;;;4936555;28;20130;-63
2022/03/10 10:20:59;;;;;;;19.92;8.95;;;7.50;55.90;;;;;;4938587;28;20082;-65
2022/03/10 10:23:33;;;;;;;13.32;8.80;;;7.60;55.50;;;;;;4935712;28;20043;-65
2022/03/10 10:25:58;;;;;;;16.63;8.98;;;7.80;55.00;;;;;;4937487;28;20519;-65
2022/03/10 10:28:31;;;;;;;12.80;7.72;;;8.00;55.10;;;;;;4936150;28;20071;-67
2022/03/10 10:31:21;;;;;;;12.57;6.95;;;8.10;54.60;;;;;;4936401;28;20404;-65
2022/03/10 10:34:09;;;;;;;15.10;7.50;;;8.40;53.80;;;;;;4934507;28;20429;-65
2022/03/10 10:36:37;;;;;;;11.82;6.75;;;8.50;53.50;;;;;;4936836;28;20519;-65
2022/03/10 10:39:16;;;;;;;12.68;7.15;;;8.70;53.80;;;;;;4937676;28;20063;-65
2022/03/10 10:41:46;;;;;;;13.50;6.78;;;8.90;52.90;;;;;;4943876;28;20086;-65
2022/03/10 10:44:18;;;;;;;9.85;6.60;;;9.10;53.00;;;;;;4936901;28;20290;-65
2022/03/10 10:46:46;;;;;;;12.38;6.43;;;9.20;52.60;;;;;;4937565;28;20071;-65
2022/03/10 10:49:11;;;;;;;11.50;6.53;;;9.30;52.60;;;;;;4937074;28;20499;-65
2022/03/10 10:51:55;;;;;;;10.70;6.25;;;9.50;52.20;;;;;;4938613;28;20035;-64
2022/03/10 10:54:20;;;;;;;10.95;6.43;;;9.70;51.40;;;;;;4936305;28;20046;-64
2022/03/10 10:56:52;;;;;;;9.50;6.10;;;9.80;52.40;;;;;;4936273;28;20039;-65
2022/03/10 10:59:34;;;;;;;11.30;5.97;;;10.00;51.00;;;;;;4940887;28;20031;-65
2022/03/10 11:02:18;;;;;;;8.70;5.55;;;10.10;50.40;;;;;;4941635;28;20062;-65
2022/03/10 11:04:51;;;;;;;7.63;5.63;;;10.20;50.20;;;;;;4940783;28;20635;-65
2022/03/10 11:07:18;;;;;;;7.57;5.28;;;10.30;50.30;;;;;;4940753;28;20114;-65
2022/03/10 11:09:46;;;;;;;8.10;5.60;;;10.50;50.50;;;;;;4940409;28;20028;-65
2022/03/10 11:12:13;;;;;;;7.70;5.50;;;10.70;50.10;;;;;;4937762;28;20435;-65
2022/03/10 11:14:40;;;;;;;8.85;5.85;;;10.90;49.80;;;;;;4938980;28;20043;-65
2022/03/10 11:17:06;;;;;;;9.52;5.75;;;10.90;49.40;;;;;;4941153;28;20036;-65
2022/03/10 11:19:44;;;;;;;10.20;6.00;;;11.10;49.20;;;;;;4938781;28;20090;-65
2022/03/10 11:22:36;;;;;;;8.15;5.38;;;11.20;47.90;;;;;;4940682;28;20411;-64
2022/03/10 11:25:24;;;;;;;6.57;5.18;;;11.30;48.00;;;;;;4940225;28;20044;-65
2022/03/10 11:28:01;;;;;;;5.13;4.10;;;11.40;47.90;;;;;;4939031;28;20031;-65
2022/03/10 11:30:28;;;;;;;5.22;3.67;;;11.50;47.60;;;;;;4946427;28;20063;-65
2022/03/10 11:33:33;;;;;;;7.32;3.28;;;11.60;47.90;;;;;;4941089;28;20058;-65
2022/03/10 11:36:00;;;;;;;5.80;3.40;;;11.70;45.20;;;;;;4938273;28;20024;-65
2022/03/10 11:38:59;;;;;;;5.43;3.70;;;11.90;47.50;;;;;;4939156;28;20040;-66
2022/03/10 11:41:41;;;;;;;4.88;3.22;;;12.00;45.90;;;;;;4941644;28;20080;-65
2022/03/10 11:44:08;;;;;;;4.35;3.25;;;12.10;46.20;;;;;;4940690;28;20047;-65
2022/03/10 11:46:36;;;;;;;4.63;3.40;;;12.10;46.50;;;;;;4939702;28;20102;-65
2022/03/10 11:49:08;;;;;;;3.97;3.40;;;12.20;46.00;;;;;;4940286;28;20126;-65
2022/03/10 11:51:52;;;;;;;3.40;2.90;;;12.30;45.10;;;;;;4939518;28;20028;-65
2022/03/10 11:54:21;;;;;;;3.17;2.70;;;12.40;44.20;;;;;;4938797;28;20147;-65
2022/03/10 11:56:50;;;;;;;2.97;2.40;;;12.50;45.30;;;;;;4940229;28;20054;-65
2022/03/10 11:59:19;;;;;;;4.43;2.90;;;12.60;44.60;;;;;;4940369;28;20061;-64
2022/03/10 12:01:45;;;;;;;3.55;2.60;;;12.60;44.10;;;;;;4939746;28;20518;-65
2022/03/10 12:04:18;;;;;;;3.45;2.75;;;12.70;44.30;;;;;;4939783;28;20087;-64
2022/03/10 12:06:59;;;;;;;4.43;3.00;;;12.80;43.30;;;;;;4939381;28;20047;-66
2022/03/10 12:09:33;;;;;;;4.50;2.85;;;12.90;42.90;;;;;;4937026;28;20039;-65
2022/03/10 12:12:17;;;;;;;3.67;2.47;;;12.90;43.00;;;;;;4953302;28;20044;-66
2022/03/10 12:14:45;;;;;;;4.47;2.07;;;13.00;42.50;;;;;;4944309;28;20522;-65
2022/03/10 12:17:44;;;;;;;3.72;2.50;;;13.00;43.20;;;;;;4940552;28;20283;-66
2022/03/10 12:20:13;;;;;;;2.83;2.00;;;13.10;41.50;;;;;;4940497;28;20037;-65
2022/03/10 12:22:38;;;;;;;2.47;2.03;;;13.20;42.90;;;;;;4939213;28;20067;-66
2022/03/10 12:25:22;;;;;;;3.13;2.47;;;13.20;42.40;;;;;;4939383;28;20063;-65
2022/03/10 12:27:55;;;;;;;2.90;2.55;;;13.20;40.60;;;;;;4939540;28;20027;-66
2022/03/10 12:30:24;;;;;;;3.28;2.08;;;13.30;41.70;;;;;;4939315;28;20574;-66
2022/03/10 12:32:52;;;;;;;3.35;2.50;;;13.30;41.70;;;;;;4940294;28;20062;-65
2022/03/10 12:35:40;;;;;;;3.75;1.88;;;13.30;41.50;;;;;;4938608;28;20023;-65
2022/03/10 12:38:07;;;;;;;2.65;2.25;;;13.40;40.30;;;;;;4939120;28;20539;-65
2022/03/10 12:40:35;;;;;;;2.72;2.42;;;13.40;41.40;;;;;;4937867;28;20039;-65
2022/03/10 12:43:04;;;;;;;3.55;2.22;;;13.40;40.90;;;;;;4938882;28;20124;-65
2022/03/10 12:45:32;;;;;;;2.60;2.40;;;13.40;40.60;;;;;;4940499;28;20028;-65